createdAt,value
2022-12-23T00:01:39.377Z,7.80
2022-12-23T00:04:49.245Z,8.10
2022-12-23T00:07:55.872Z,7.70
2022-12-23T00:11:02.578Z,7.90
2022-12-23T00:14:41.335Z,8.20
2022-12-23T00:17:48.382Z,8.30
2022-12-23T00:21:08.114Z,8.70
2022-12-23T00:24:15.530Z,7.70
2022-12-23T00:27:22.151Z,8.20
2022-12-23T00:30:29.745Z,7.80
2022-12-23T00:33:38.555Z,8.50
2022-12-23T00:36:45.401Z,8.00
2022-12-23T00:40:09.415Z,8.50
2022-12-23T00:43:16.146Z,7.50
2022-12-23T00:46:26.333Z,8.50
2022-12-23T00:49:45.059Z,7.90
2022-12-23T00:52:52.018Z,8.20
2022-12-23T00:55:59.120Z,8.90
2022-12-23T00:59:06.040Z,7.90
2022-12-23T01:02:31.181Z,8.60
2022-12-23T01:05:38.611Z,8.60
2022-12-23T01:08:45.448Z,8.30
2022-12-23T01:11:52.127Z,7.90
2022-12-23T01:14:58.748Z,8.80
2022-12-23T01:18:05.533Z,8.80
2022-12-23T01:21:12.934Z,8.50
2022-12-23T01:24:19.936Z,7.50
2022-12-23T01:27:26.932Z,8.10
2022-12-23T01:30:33.897Z,8.00
2022-12-23T01:33:40.559Z,7.50
2022-12-23T01:36:47.411Z,8.10
2022-12-23T01:39:54.087Z,7.10
2022-12-23T01:43:00.839Z,8.80
2022-12-23T01:46:07.629Z,8.10
2022-12-23T01:49:14.484Z,8.20
2022-12-23T01:52:21.755Z,9.10
2022-12-23T01:55:32.296Z,8.50
2022-12-23T01:58:42.446Z,9.00
2022-12-23T02:02:06.617Z,8.90
2022-12-23T02:05:14.111Z,10.60
2022-12-23T02:08:38.892Z,9.10
2022-12-23T02:12:17.686Z,9.40
2022-12-23T02:15:52.899Z,10.00
2022-12-23T02:19:11.823Z,10.00
2022-12-23T02:22:39.113Z,10.90
2022-12-23T02:26:05.745Z,9.90
2022-12-23T02:29:51.782Z,9.80
2022-12-23T02:33:32.029Z,8.30
2022-12-23T02:36:48.264Z,11.40
2022-12-23T02:39:59.044Z,12.70
2022-12-23T02:43:13.593Z,12.40
2022-12-23T02:46:25.066Z,12.60
2022-12-23T02:49:35.338Z,12.60
2022-12-23T02:52:45.982Z,13.20
2022-12-23T02:55:56.049Z,12.90
2022-12-23T02:59:06.730Z,12.30
2022-12-23T03:02:13.774Z,13.30
2022-12-23T03:05:29.237Z,13.50
2022-12-23T03:08:44.759Z,12.90
2022-12-23T03:12:00.574Z,12.90
2022-12-23T03:15:23.225Z,12.00
2022-12-23T03:18:35.588Z,12.70
2022-12-23T03:21:47.530Z,13.90
2022-12-23T03:25:04.485Z,11.80
2022-12-23T03:28:17.262Z,11.70
2022-12-23T03:31:28.259Z,14.70
2022-12-23T03:34:38.757Z,13.80
2022-12-23T03:37:50.283Z,13.20
2022-12-23T03:41:01.186Z,13.00
2022-12-23T03:44:11.470Z,11.40
2022-12-23T03:47:24.769Z,13.90
2022-12-23T03:50:33.157Z,12.30
2022-12-23T03:53:43.328Z,10.80
2022-12-23T03:56:54.990Z,12.10
2022-12-23T04:00:01.692Z,12.50
2022-12-23T04:03:19.981Z,11.30
2022-12-23T04:06:29.254Z,11.60
2022-12-23T04:09:38.104Z,10.00
2022-12-23T04:12:45.210Z,10.60
2022-12-23T04:15:51.941Z,10.30
2022-12-23T04:18:58.761Z,10.10
2022-12-23T04:22:05.555Z,11.00
2022-12-23T04:25:13.379Z,10.50
2022-12-23T04:28:20.521Z,9.30
2022-12-23T04:31:27.286Z,9.00
2022-12-23T04:34:34.097Z,8.80
2022-12-23T04:37:41.367Z,10.20
2022-12-23T04:40:49.831Z,10.10
2022-12-23T04:43:56.462Z,8.20
2022-12-23T04:47:03.386Z,8.60
2022-12-23T04:50:16.217Z,8.20
2022-12-23T04:53:22.947Z,10.10
2022-12-23T04:56:29.760Z,9.10
2022-12-23T04:59:37.735Z,9.80
2022-12-23T05:02:44.571Z,9.20
2022-12-23T05:05:51.784Z,8.90
2022-12-23T05:09:00.978Z,9.30
2022-12-23T05:12:08.141Z,10.40
2022-12-23T05:15:16.835Z,9.20
2022-12-23T05:18:27.223Z,9.10
2022-12-23T05:21:33.974Z,10.40
2022-12-23T05:24:40.673Z,10.60
2022-12-23T05:27:47.508Z,15.10
2022-12-23T05:31:00.487Z,11.60
2022-12-23T05:34:07.260Z,10.40
2022-12-23T05:37:14.063Z,11.60
2022-12-23T05:40:24.725Z,13.30
2022-12-23T05:43:35.634Z,12.90
2022-12-23T05:46:42.340Z,12.80
2022-12-23T05:52:57.913Z,12.70
2022-12-23T05:56:08.406Z,12.70
2022-12-23T05:59:15.186Z,12.90
2022-12-23T06:02:22.433Z,13.70
2022-12-23T06:05:29.432Z,11.90
2022-12-23T06:08:36.297Z,18.00
2022-12-23T06:11:42.843Z,12.60
2022-12-23T06:14:49.601Z,14.10
2022-12-23T06:17:59.531Z,14.10
2022-12-23T06:21:06.931Z,14.40
2022-12-23T06:24:14.179Z,14.70
2022-12-23T06:27:20.937Z,14.50
2022-12-23T06:30:27.627Z,16.20
2022-12-23T06:33:34.421Z,14.70
2022-12-23T06:36:41.521Z,15.00
2022-12-23T06:39:48.135Z,15.00
2022-12-23T06:42:54.997Z,14.20
2022-12-23T06:46:01.743Z,14.60
2022-12-23T06:49:13.196Z,15.00
2022-12-23T06:52:20.647Z,11.10
2022-12-23T06:55:27.420Z,13.60
2022-12-23T06:58:34.541Z,15.60
2022-12-23T07:01:43.086Z,13.60
2022-12-23T07:04:50.179Z,14.80
2022-12-23T07:07:58.345Z,16.10
2022-12-23T07:11:06.778Z,15.10
2022-12-23T07:14:13.596Z,15.90
2022-12-23T07:17:20.851Z,21.60
2022-12-23T07:20:27.762Z,55.00
2022-12-23T07:23:34.698Z,49.10
2022-12-23T07:26:41.417Z,34.00
2022-12-23T07:29:48.022Z,25.90
2022-12-23T07:32:55.098Z,17.60
2022-12-23T07:36:01.953Z,16.20
2022-12-23T07:39:08.865Z,16.70
2022-12-23T07:42:43.388Z,16.60
2022-12-23T07:45:42.376Z,14.60
2022-12-23T07:48:49.196Z,14.00
2022-12-23T07:51:55.778Z,16.10
2022-12-23T07:55:02.628Z,15.70
2022-12-23T07:58:09.520Z,14.60
2022-12-23T08:01:16.725Z,14.70
2022-12-23T08:04:25.669Z,14.60
2022-12-23T08:07:32.341Z,14.80
2022-12-23T08:10:44.368Z,13.50
2022-12-23T08:13:54.887Z,12.50
2022-12-23T08:17:03.857Z,13.00
2022-12-23T08:20:12.753Z,10.80
2022-12-23T08:23:24.570Z,10.60
2022-12-23T08:26:32.029Z,10.50
2022-12-23T08:29:40.006Z,12.50
2022-12-23T08:32:47.772Z,11.70
2022-12-23T08:35:57.568Z,12.20
2022-12-23T08:39:08.477Z,12.40
2022-12-23T08:42:15.483Z,11.80
2022-12-23T08:45:22.360Z,11.60
2022-12-23T08:48:29.220Z,11.20
2022-12-23T08:51:36.135Z,11.80
2022-12-23T08:54:42.914Z,10.80
2022-12-23T08:57:49.967Z,12.70
2022-12-23T09:00:56.829Z,11.80
2022-12-23T09:04:08.867Z,11.80
2022-12-23T09:07:15.539Z,11.00
2022-12-23T09:10:23.362Z,10.80
2022-12-23T09:13:35.093Z,10.70
2022-12-23T09:16:42.826Z,11.50
2022-12-23T09:19:53.012Z,11.50
2022-12-23T09:23:02.358Z,11.40
2022-12-23T09:26:10.757Z,11.80
2022-12-23T09:29:17.567Z,10.40
2022-12-23T09:32:24.321Z,10.60
2022-12-23T09:35:30.964Z,11.00
2022-12-23T09:38:37.734Z,10.90
2022-12-23T09:42:01.892Z,11.60
2022-12-23T09:45:40.357Z,10.80
2022-12-23T09:48:53.389Z,12.50
2022-12-23T09:52:05.951Z,12.40
2022-12-23T09:55:15.560Z,11.60
2022-12-23T09:58:30.949Z,12.20
2022-12-23T10:01:45.777Z,12.10
2022-12-23T10:05:02.950Z,13.10
2022-12-23T10:08:18.737Z,12.50
2022-12-23T10:11:29.212Z,12.40
2022-12-23T10:14:38.349Z,12.10
2022-12-23T10:17:46.343Z,12.00
2022-12-23T10:20:58.901Z,11.70
2022-12-23T10:24:13.797Z,11.90
2022-12-23T10:27:29.402Z,12.50
2022-12-23T10:31:05.836Z,11.00
2022-12-23T10:34:21.302Z,11.60
2022-12-23T10:37:35.786Z,11.50
2022-12-23T10:40:55.705Z,11.00
2022-12-23T10:44:19.380Z,10.70
2022-12-23T10:47:42.186Z,11.40
2022-12-23T10:50:58.257Z,10.70
2022-12-23T10:54:11.395Z,10.70
2022-12-23T10:57:20.351Z,12.20
2022-12-23T11:00:28.005Z,10.60
2022-12-23T11:03:39.418Z,12.60
2022-12-23T11:07:10.644Z,11.00
2022-12-23T11:10:34.309Z,8.70
2022-12-23T11:13:42.960Z,10.80
2022-12-23T11:16:49.760Z,7.50
2022-12-23T11:20:15.784Z,10.90
2022-12-23T11:23:28.966Z,8.60
2022-12-23T11:26:36.640Z,11.10
2022-12-23T11:29:51.737Z,10.60
2022-12-23T11:32:59.793Z,10.80
2022-12-23T11:36:10.032Z,11.20
2022-12-23T11:39:27.410Z,7.90
2022-12-23T11:42:36.684Z,7.10
2022-12-23T11:45:43.650Z,7.20
2022-12-23T11:48:54.737Z,11.80
2022-12-23T11:52:14.963Z,10.00
2022-12-23T11:55:29.883Z,9.20
2022-12-23T11:58:41.667Z,10.30
2022-12-23T12:01:50.508Z,8.20
2022-12-23T12:05:00.576Z,7.90
2022-12-23T12:08:11.492Z,9.70
2022-12-23T12:11:23.318Z,9.80
2022-12-23T12:14:38.174Z,9.90
2022-12-23T12:17:52.347Z,8.80
2022-12-23T12:21:04.889Z,9.00
2022-12-23T12:24:20.729Z,10.30
2022-12-23T12:27:36.111Z,11.20
2022-12-23T12:30:50.447Z,14.10
2022-12-23T12:34:02.880Z,12.10
2022-12-23T12:37:21.268Z,12.50
2022-12-23T12:40:35.237Z,13.40
2022-12-23T12:43:47.806Z,13.30
2022-12-23T12:46:59.649Z,11.60
2022-12-23T12:50:13.961Z,13.30
2022-12-23T12:53:23.557Z,13.60
2022-12-23T12:59:41.492Z,11.90
2022-12-23T13:03:12.460Z,12.40
2022-12-23T13:06:27.558Z,10.80
2022-12-23T13:09:49.297Z,10.60
2022-12-23T13:13:05.619Z,9.70
2022-12-23T13:16:23.404Z,11.30
2022-12-23T13:19:39.693Z,11.60
2022-12-23T13:22:51.115Z,10.80
2022-12-23T13:26:03.159Z,12.00
2022-12-23T13:29:36.186Z,60.60
2022-12-23T13:33:07.395Z,15.50
2022-12-23T13:36:27.961Z,47.60
2022-12-23T13:39:46.845Z,12.70
2022-12-23T13:42:56.865Z,12.40
2022-12-23T13:46:09.691Z,11.10
2022-12-23T13:49:29.000Z,10.20
2022-12-23T13:52:51.591Z,12.60
2022-12-23T13:56:12.816Z,10.60
2022-12-23T13:59:19.836Z,9.40
2022-12-23T14:02:51.698Z,11.70
2022-12-23T14:05:58.693Z,12.10
2022-12-23T14:09:06.013Z,9.10
2022-12-23T14:12:22.249Z,8.30
2022-12-23T14:15:46.306Z,9.30
2022-12-23T14:19:15.808Z,10.60
2022-12-23T14:22:39.136Z,9.30
2022-12-23T14:26:27.828Z,9.10
2022-12-23T14:29:52.786Z,9.50
2022-12-23T14:33:01.880Z,10.20
2022-12-23T14:36:26.427Z,7.70
2022-12-23T14:39:35.166Z,9.60
2022-12-23T14:42:45.812Z,10.50
2022-12-23T14:45:54.440Z,11.50
2022-12-23T14:49:40.848Z,11.20
2022-12-23T14:53:02.342Z,11.80
2022-12-23T14:56:26.760Z,12.90
2022-12-23T14:59:41.394Z,12.20
2022-12-23T15:02:48.651Z,10.90
2022-12-23T15:06:08.029Z,12.70
2022-12-23T15:09:24.867Z,9.60
2022-12-23T15:12:36.162Z,12.10
2022-12-23T15:16:00.620Z,14.10
2022-12-23T15:19:20.903Z,13.20
2022-12-23T15:22:33.430Z,14.00
2022-12-23T15:25:48.034Z,13.60
2022-12-23T15:28:56.943Z,13.30
2022-12-23T15:32:04.711Z,13.20
2022-12-23T15:35:19.197Z,11.50
2022-12-23T15:38:30.885Z,13.00
2022-12-23T15:41:44.766Z,12.90
2022-12-23T15:44:52.524Z,13.00
2022-12-23T15:47:59.227Z,11.70
2022-12-23T15:51:12.733Z,11.90
2022-12-23T15:54:25.641Z,11.70
2022-12-23T15:57:33.144Z,11.40
2022-12-23T16:00:50.129Z,12.80
2022-12-23T16:04:01.486Z,11.60
2022-12-23T16:07:24.666Z,10.70
2022-12-23T16:10:32.212Z,10.20
2022-12-23T16:13:43.079Z,10.50
2022-12-23T16:16:59.229Z,9.90
2022-12-23T16:20:23.840Z,11.10
2022-12-23T16:23:33.982Z,11.20
2022-12-23T16:26:48.337Z,10.80
2022-12-23T16:29:55.402Z,11.00
2022-12-23T16:33:04.740Z,10.90
2022-12-23T16:36:32.891Z,10.50
2022-12-23T16:39:42.121Z,11.40
2022-12-23T16:42:54.354Z,10.90
2022-12-23T16:46:01.599Z,9.50
2022-12-23T16:49:15.398Z,10.10
2022-12-23T16:52:26.794Z,9.70
2022-12-23T16:55:33.511Z,9.50
2022-12-23T16:58:40.377Z,10.30
2022-12-23T17:01:49.500Z,10.30
2022-12-23T17:04:56.399Z,10.30
2022-12-23T17:08:04.691Z,11.80
2022-12-23T17:11:16.793Z,10.90
2022-12-23T17:14:25.688Z,11.50
2022-12-23T17:17:32.924Z,11.30
2022-12-23T17:20:39.996Z,12.20
2022-12-23T17:23:48.195Z,9.50
2022-12-23T17:26:56.913Z,10.10
2022-12-23T17:30:15.147Z,9.30
2022-12-23T17:33:22.667Z,8.90
2022-12-23T17:36:29.638Z,9.70
2022-12-23T17:39:36.473Z,9.80
2022-12-23T17:42:43.727Z,10.90
2022-12-23T17:45:50.516Z,10.80
2022-12-23T17:48:59.120Z,11.10
2022-12-23T17:52:12.607Z,11.80
2022-12-23T17:55:22.677Z,12.00
2022-12-23T17:58:29.549Z,12.30
2022-12-23T18:01:36.528Z,12.80
2022-12-23T18:04:43.315Z,12.80
2022-12-23T18:07:50.323Z,11.70
2022-12-23T18:10:58.396Z,11.60
2022-12-23T18:14:06.109Z,12.30
2022-12-23T18:17:17.117Z,14.40
2022-12-23T18:20:26.083Z,12.40
2022-12-23T18:23:34.364Z,12.50
2022-12-23T18:26:41.094Z,13.10
2022-12-23T18:29:48.734Z,12.50
2022-12-23T18:32:55.399Z,14.40
2022-12-23T18:36:02.094Z,12.50
2022-12-23T18:39:08.900Z,14.40
2022-12-23T18:42:17.257Z,14.50
2022-12-23T18:45:29.917Z,14.00
2022-12-23T18:48:36.630Z,14.60
2022-12-23T18:51:45.408Z,13.80
2022-12-23T18:54:53.445Z,13.70
2022-12-23T18:58:01.526Z,15.30
2022-12-23T19:01:11.209Z,17.20
2022-12-23T19:07:25.093Z,12.90
2022-12-23T19:10:34.022Z,12.00
2022-12-23T19:13:41.052Z,16.10
2022-12-23T19:16:51.912Z,19.60
2022-12-23T19:19:59.540Z,24.30
2022-12-23T19:23:06.696Z,19.90
2022-12-23T19:26:15.824Z,19.90
2022-12-23T19:29:22.939Z,19.90
2022-12-23T19:32:29.595Z,24.70
2022-12-23T19:35:36.669Z,24.30
2022-12-23T19:38:46.602Z,25.60
2022-12-23T19:41:53.242Z,26.00
2022-12-23T19:44:59.974Z,24.10
2022-12-23T19:48:08.251Z,25.20
2022-12-23T19:51:15.925Z,24.10
2022-12-23T19:54:22.910Z,22.00
2022-12-23T19:57:29.760Z,22.10
2022-12-23T20:00:36.513Z,27.10
2022-12-23T20:03:45.321Z,25.60
2022-12-23T20:06:52.615Z,25.50
2022-12-23T20:09:59.279Z,29.50
2022-12-23T20:13:08.073Z,28.80
2022-12-23T20:16:16.127Z,28.10
2022-12-23T20:19:22.768Z,27.40
2022-12-23T20:22:29.517Z,29.00
2022-12-23T20:25:36.079Z,30.90
2022-12-23T20:28:43.056Z,31.90
2022-12-23T20:31:49.775Z,30.10
2022-12-23T20:34:56.441Z,28.20
2022-12-23T20:38:03.268Z,30.70
2022-12-23T20:41:12.083Z,30.40
2022-12-23T20:44:36.882Z,29.70
2022-12-23T20:47:43.877Z,31.80
2022-12-23T20:50:50.830Z,32.00
2022-12-23T20:54:01.020Z,33.60
2022-12-23T20:57:07.872Z,33.60
2022-12-23T21:00:16.785Z,34.00
2022-12-23T21:03:23.678Z,40.10
2022-12-23T21:06:31.458Z,35.30
2022-12-23T21:09:38.332Z,38.40
2022-12-23T21:12:45.058Z,38.80
2022-12-23T21:15:51.816Z,35.60
2022-12-23T21:18:59.368Z,38.50
2022-12-23T21:22:06.145Z,39.70
2022-12-23T21:25:13.306Z,42.00
2022-12-23T21:28:20.004Z,41.80
2022-12-23T21:31:27.429Z,43.90
2022-12-23T21:34:34.209Z,40.90
2022-12-23T21:37:40.922Z,36.00
2022-12-23T21:40:47.518Z,33.30
2022-12-23T21:43:54.633Z,37.80
2022-12-23T21:47:01.304Z,37.80
2022-12-23T21:50:10.403Z,30.60
2022-12-23T21:53:17.080Z,32.50
2022-12-23T21:56:26.116Z,30.50
2022-12-23T21:59:35.182Z,31.80
2022-12-23T22:02:42.598Z,31.70
2022-12-23T22:05:49.377Z,28.50
2022-12-23T22:08:58.590Z,30.70
2022-12-23T22:12:05.444Z,28.60
2022-12-23T22:15:13.028Z,29.10
2022-12-23T22:18:19.734Z,28.40
2022-12-23T22:21:29.083Z,28.60
2022-12-23T22:24:35.896Z,28.60
2022-12-23T22:27:42.596Z,31.30
2022-12-23T22:30:49.376Z,29.10
2022-12-23T22:33:56.203Z,29.50
2022-12-23T22:37:02.803Z,27.20
2022-12-23T22:40:11.349Z,26.60
2022-12-23T22:43:18.185Z,28.20
2022-12-23T22:46:25.601Z,26.50
2022-12-23T22:49:32.443Z,26.90
2022-12-23T22:52:39.436Z,23.30
2022-12-23T22:55:46.127Z,24.60
2022-12-23T22:58:54.079Z,23.50
2022-12-23T23:02:01.179Z,22.70
2022-12-23T23:05:12.905Z,25.30
2022-12-23T23:08:20.210Z,24.70
2022-12-23T23:11:28.411Z,22.40
2022-12-23T23:14:52.424Z,23.40
2022-12-23T23:17:59.612Z,22.90
2022-12-23T23:21:06.673Z,22.40
2022-12-23T23:24:13.463Z,20.10
2022-12-23T23:27:20.394Z,19.00
2022-12-23T23:30:27.155Z,19.80
2022-12-23T23:33:34.061Z,17.90
2022-12-23T23:36:40.956Z,19.20
2022-12-23T23:39:47.803Z,17.20
2022-12-23T23:42:54.877Z,18.10
2022-12-23T23:46:01.696Z,18.10
2022-12-23T23:49:08.474Z,15.50
2022-12-23T23:52:15.229Z,16.70
2022-12-23T23:55:21.912Z,17.60
2022-12-23T23:58:28.643Z,16.60
